createdAt,value
2018-04-28T00:00:48.106Z,13.33
2018-04-28T00:01:48.096Z,13.32
2018-04-28T00:02:48.092Z,13.33
2018-04-28T00:04:09.081Z,13.26
2018-04-28T00:04:48.068Z,13.25
2018-04-28T00:05:48.062Z,13.23
2018-04-28T00:06:48.051Z,13.11
2018-04-28T00:07:48.039Z,13.20
2018-04-28T00:08:48.032Z,13.17
2018-04-28T00:10:09.033Z,13.15
2018-04-28T00:10:48.024Z,13.19
2018-04-28T00:11:48.004Z,13.08
2018-04-28T00:12:47.992Z,13.08
2018-04-28T00:13:47.981Z,13.04
2018-04-28T00:14:47.971Z,13.08
2018-04-28T00:16:08.984Z,13.03
2018-04-28T00:16:47.946Z,12.89
2018-04-28T00:17:47.942Z,12.90
2018-04-28T00:18:47.930Z,12.90
2018-04-28T00:19:47.923Z,12.92
2018-04-28T00:20:47.939Z,12.83
2018-04-28T00:22:08.897Z,12.86
2018-04-28T00:22:47.886Z,12.83
2018-04-28T00:23:47.883Z,12.87
2018-04-28T00:24:47.867Z,12.89
2018-04-28T00:25:47.891Z,12.89
2018-04-28T00:26:47.837Z,12.97
2018-04-28T00:28:08.837Z,12.95
2018-04-28T00:28:47.818Z,12.85
2018-04-28T00:29:47.804Z,12.86
2018-04-28T00:30:47.804Z,12.90
2018-04-28T00:31:47.796Z,12.87
2018-04-28T00:32:47.787Z,12.90
2018-04-28T00:34:08.775Z,12.93
2018-04-28T00:34:47.759Z,12.95
2018-04-28T00:35:47.749Z,12.90
2018-04-28T00:36:47.738Z,12.85
2018-04-28T00:37:47.725Z,12.96
2018-04-28T00:38:47.720Z,12.89
2018-04-28T00:40:08.714Z,13.01
2018-04-28T00:40:47.696Z,12.95
2018-04-28T00:41:47.686Z,12.97
2018-04-28T00:42:47.668Z,12.92
2018-04-28T00:43:47.664Z,12.86
2018-04-28T00:44:47.654Z,12.93
2018-04-28T00:46:08.649Z,12.86
2018-04-28T00:46:47.638Z,12.92
2018-04-28T00:47:47.647Z,12.92
2018-04-28T00:48:47.639Z,12.90
2018-04-28T00:49:47.599Z,12.92
2018-04-28T00:50:47.597Z,13.01
2018-04-28T00:52:08.588Z,12.86
2018-04-28T00:52:47.575Z,12.87
2018-04-28T00:53:47.570Z,12.96
2018-04-28T00:54:47.540Z,12.93
2018-04-28T00:55:47.535Z,12.97
2018-04-28T00:56:47.522Z,12.86
2018-04-28T00:58:08.532Z,13.00
2018-04-28T00:58:47.506Z,13.00
2018-04-28T00:59:47.491Z,12.97
2018-04-28T01:00:47.482Z,13.00
2018-04-28T01:01:47.466Z,12.96
2018-04-28T01:02:47.471Z,13.00
2018-04-28T01:04:08.455Z,12.90
2018-04-28T01:04:47.447Z,12.83
2018-04-28T01:05:47.437Z,12.85
2018-04-28T01:06:47.421Z,12.90
2018-04-28T01:07:47.417Z,12.85
2018-04-28T01:08:47.425Z,12.87
2018-04-28T01:10:08.397Z,12.95
2018-04-28T01:10:47.380Z,12.97
2018-04-28T01:11:47.366Z,12.78
2018-04-28T01:12:47.359Z,12.85
2018-04-28T01:13:47.350Z,12.95
2018-04-28T01:14:47.338Z,12.93
2018-04-28T01:16:08.324Z,12.79
2018-04-28T01:16:47.314Z,12.86
2018-04-28T01:17:47.309Z,12.92
2018-04-28T01:18:47.294Z,12.83
2018-04-28T01:19:47.285Z,12.85
2018-04-28T01:20:47.275Z,12.86
2018-04-28T01:22:08.278Z,12.83
2018-04-28T01:22:47.251Z,12.86
2018-04-28T01:23:47.237Z,12.90
2018-04-28T01:24:47.231Z,12.86
2018-04-28T01:25:47.218Z,12.86
2018-04-28T01:26:47.206Z,12.85
2018-04-28T01:28:08.203Z,12.85
2018-04-28T01:28:47.185Z,12.85
2018-04-28T01:29:47.174Z,12.87
2018-04-28T01:30:47.175Z,12.83
2018-04-28T01:31:47.159Z,12.85
2018-04-28T01:32:47.145Z,12.87
2018-04-28T01:34:08.151Z,12.83
2018-04-28T01:34:47.130Z,12.85
2018-04-28T01:35:47.107Z,12.83
2018-04-28T01:36:47.102Z,12.86
2018-04-28T01:37:47.106Z,12.71
2018-04-28T01:38:47.085Z,12.82
2018-04-28T01:40:08.080Z,12.83
2018-04-28T01:40:47.054Z,12.72
2018-04-28T01:41:47.049Z,12.72
2018-04-28T01:42:47.048Z,12.75
2018-04-28T01:43:47.027Z,12.65
2018-04-28T01:44:47.016Z,12.65
2018-04-28T01:46:08.018Z,12.60
2018-04-28T01:46:46.999Z,12.60
2018-04-28T01:47:46.979Z,12.62
2018-04-28T01:48:46.991Z,12.62
2018-04-28T01:49:46.959Z,12.64
2018-04-28T01:50:46.954Z,12.62
2018-04-28T01:52:07.947Z,12.62
2018-04-28T01:52:46.928Z,12.57
2018-04-28T01:53:46.918Z,12.57
2018-04-28T01:54:46.909Z,12.67
2018-04-28T01:55:46.903Z,12.60
2018-04-28T01:56:46.888Z,12.62
2018-04-28T01:58:07.882Z,12.68
2018-04-28T01:58:46.863Z,12.60
2018-04-28T01:59:46.845Z,12.65
2018-04-28T02:00:46.848Z,12.62
2018-04-28T02:01:46.841Z,12.64
2018-04-28T02:02:46.826Z,12.64
2018-04-28T02:04:07.841Z,12.60
2018-04-28T02:04:46.800Z,12.65
2018-04-28T02:05:46.792Z,12.65
2018-04-28T02:06:46.776Z,12.60
2018-04-28T02:07:46.763Z,12.67
2018-04-28T02:08:46.755Z,12.62
2018-04-28T02:10:07.755Z,12.68
2018-04-28T02:10:46.741Z,12.64
2018-04-28T02:11:46.727Z,12.65
2018-04-28T02:12:46.711Z,12.67
2018-04-28T02:13:46.699Z,12.57
2018-04-28T02:14:46.724Z,12.75
2018-04-28T02:16:07.688Z,12.75
2018-04-28T02:16:46.673Z,12.77
2018-04-28T02:17:46.657Z,12.74
2018-04-28T02:18:46.652Z,12.74
2018-04-28T02:19:46.636Z,12.74
2018-04-28T02:20:46.633Z,12.74
2018-04-28T02:22:07.631Z,12.71
2018-04-28T02:22:46.603Z,12.75
2018-04-28T02:23:46.591Z,12.77
2018-04-28T02:24:46.583Z,12.70
2018-04-28T02:25:46.574Z,12.70
2018-04-28T02:26:46.565Z,12.70
2018-04-28T02:28:07.549Z,12.77
2018-04-28T02:28:46.544Z,12.65
2018-04-28T02:29:46.528Z,12.77
2018-04-28T02:30:46.512Z,12.71
2018-04-28T02:31:46.512Z,12.75
2018-04-28T02:32:46.506Z,12.70
2018-04-28T02:34:07.492Z,12.74
2018-04-28T02:34:46.475Z,12.71
2018-04-28T02:35:46.483Z,12.77
2018-04-28T02:36:46.457Z,12.70
2018-04-28T02:37:46.435Z,12.71
2018-04-28T02:38:46.446Z,12.75
2018-04-28T02:40:07.423Z,12.78
2018-04-28T02:40:46.416Z,12.78
2018-04-28T02:41:46.404Z,12.70
2018-04-28T02:42:46.395Z,12.64
2018-04-28T02:43:46.383Z,12.60
2018-04-28T02:44:46.364Z,12.47
2018-04-28T02:46:07.370Z,12.65
2018-04-28T02:46:46.346Z,12.46
2018-04-28T02:47:46.341Z,12.41
2018-04-28T02:48:46.323Z,12.52
2018-04-28T02:49:46.328Z,12.50
2018-04-28T02:50:46.303Z,12.35
2018-04-28T02:52:07.302Z,12.46
2018-04-28T02:52:46.303Z,12.49
2018-04-28T02:53:46.269Z,12.38
2018-04-28T02:54:46.264Z,12.38
2018-04-28T02:55:46.272Z,12.38
2018-04-28T02:56:46.244Z,12.23
2018-04-28T02:58:07.233Z,12.28
2018-04-28T02:58:46.214Z,12.19
2018-04-28T02:59:46.204Z,12.14
2018-04-28T03:00:46.203Z,12.17
2018-04-28T03:01:46.198Z,12.04
2018-04-28T03:02:46.187Z,12.05
2018-04-28T03:04:07.170Z,12.02
2018-04-28T03:04:46.145Z,11.98
2018-04-28T03:05:46.135Z,11.96
2018-04-28T03:06:46.135Z,12.04
2018-04-28T03:07:46.114Z,12.02
2018-04-28T03:08:46.110Z,12.04
2018-04-28T03:10:07.110Z,11.95
2018-04-28T03:10:46.081Z,11.91
2018-04-28T03:11:46.071Z,11.96
2018-04-28T03:12:46.115Z,11.94
2018-04-28T03:13:46.043Z,12.02
2018-04-28T03:14:46.032Z,11.96
2018-04-28T03:16:07.029Z,12.01
2018-04-28T03:16:46.019Z,12.01
2018-04-28T03:17:46.000Z,11.94
2018-04-28T03:18:46.013Z,11.91
2018-04-28T03:19:45.982Z,11.90
2018-04-28T03:20:45.985Z,12.02
2018-04-28T03:22:06.970Z,12.04
2018-04-28T03:22:45.948Z,11.96
2018-04-28T03:23:45.957Z,11.98
2018-04-28T03:24:45.945Z,11.88
2018-04-28T03:25:45.918Z,11.99
2018-04-28T03:26:45.904Z,12.02
2018-04-28T03:28:06.918Z,11.91
2018-04-28T03:28:45.887Z,12.04
2018-04-28T03:29:45.885Z,11.99
2018-04-28T03:30:45.866Z,11.90
2018-04-28T03:31:45.878Z,11.86
2018-04-28T03:32:45.844Z,11.82
2018-04-28T03:34:06.841Z,11.85
2018-04-28T03:34:45.825Z,11.85
2018-04-28T03:35:45.810Z,11.76
2018-04-28T03:36:45.800Z,11.76
2018-04-28T03:37:45.795Z,11.80
2018-04-28T03:38:45.771Z,11.62
2018-04-28T03:40:06.765Z,11.65
2018-04-28T03:40:45.753Z,11.64
2018-04-28T03:41:45.740Z,11.64
2018-04-28T03:42:45.738Z,11.60
2018-04-28T03:43:45.718Z,11.58
2018-04-28T03:44:45.716Z,11.58
2018-04-28T03:46:06.706Z,11.51
2018-04-28T03:46:45.744Z,11.46
2018-04-28T03:47:45.674Z,11.47
2018-04-28T03:48:45.663Z,11.55
2018-04-28T03:49:45.656Z,11.58
2018-04-28T03:50:45.641Z,11.58
2018-04-28T03:52:06.631Z,11.46
2018-04-28T03:52:45.615Z,11.46
2018-04-28T03:53:45.631Z,11.61
2018-04-28T03:54:45.597Z,11.55
2018-04-28T03:55:45.589Z,11.55
2018-04-28T03:56:45.569Z,11.47
2018-04-28T03:58:06.571Z,11.47
2018-04-28T03:58:45.553Z,11.46
2018-04-28T03:59:45.544Z,11.44
2018-04-28T04:00:45.540Z,11.51
2018-04-28T04:01:45.524Z,11.51
2018-04-28T04:02:45.513Z,11.46
2018-04-28T04:04:06.502Z,11.47
2018-04-28T04:04:45.481Z,11.42
2018-04-28T04:05:45.473Z,11.39
2018-04-28T04:06:45.469Z,11.39
2018-04-28T04:07:45.454Z,11.32
2018-04-28T04:08:45.439Z,11.25
2018-04-28T04:10:06.431Z,11.14
2018-04-28T04:10:45.427Z,11.18
2018-04-28T04:11:45.413Z,11.17
2018-04-28T04:12:45.405Z,11.14
2018-04-28T04:13:45.383Z,11.18
2018-04-28T04:14:45.375Z,11.14
2018-04-28T04:16:06.370Z,11.22
2018-04-28T04:16:45.347Z,11.19
2018-04-28T04:17:45.338Z,11.25
2018-04-28T04:18:45.334Z,11.22
2018-04-28T04:19:45.324Z,11.22
2018-04-28T04:20:45.304Z,11.19
2018-04-28T04:22:06.311Z,11.21
2018-04-28T04:22:45.302Z,11.25
2018-04-28T04:23:45.277Z,11.28
2018-04-28T04:24:45.258Z,11.21
2018-04-28T04:25:45.238Z,11.22
2018-04-28T04:26:45.234Z,11.19
2018-04-28T04:28:06.229Z,11.28
2018-04-28T04:28:45.238Z,11.19
2018-04-28T04:29:45.206Z,11.25
2018-04-28T04:30:45.200Z,11.17
2018-04-28T04:31:45.183Z,11.17
2018-04-28T04:32:45.171Z,11.17
2018-04-28T04:34:06.165Z,11.11
2018-04-28T04:34:45.159Z,11.10
2018-04-28T04:35:45.136Z,11.17
2018-04-28T04:36:45.130Z,11.14
2018-04-28T04:37:45.185Z,11.17
2018-04-28T04:38:45.101Z,11.17
2018-04-28T04:40:06.094Z,11.19
2018-04-28T04:40:45.075Z,11.19
2018-04-28T04:41:45.063Z,11.25
2018-04-28T04:42:45.064Z,11.18
2018-04-28T04:43:45.040Z,11.32
2018-04-28T04:44:45.033Z,11.22
2018-04-28T04:46:06.023Z,11.24
2018-04-28T04:46:45.005Z,11.14
2018-04-28T04:47:45.022Z,11.24
2018-04-28T04:48:44.984Z,11.22
2018-04-28T04:49:44.978Z,11.17
2018-04-28T04:50:44.968Z,11.21
2018-04-28T04:52:05.964Z,11.25
2018-04-28T04:52:44.944Z,11.22
2018-04-28T04:53:44.935Z,11.28
2018-04-28T04:54:44.920Z,11.21
2018-04-28T04:55:44.896Z,11.22
2018-04-28T04:56:44.894Z,11.18
2018-04-28T04:58:05.898Z,11.25
2018-04-28T04:58:44.877Z,11.17
2018-04-28T04:59:44.851Z,11.19
2018-04-28T05:00:44.853Z,11.21
2018-04-28T05:01:44.841Z,11.29
2018-04-28T05:02:44.831Z,11.24
2018-04-28T05:04:05.822Z,11.35
2018-04-28T05:04:44.812Z,11.29
2018-04-28T05:05:44.808Z,11.29
2018-04-28T05:06:44.787Z,11.25
2018-04-28T05:07:44.778Z,11.27
2018-04-28T05:08:44.757Z,11.35
2018-04-28T05:10:05.764Z,11.42
2018-04-28T05:10:44.739Z,11.36
2018-04-28T05:11:44.720Z,11.36
2018-04-28T05:12:44.718Z,11.39
2018-04-28T05:13:44.701Z,11.35
2018-04-28T05:14:44.699Z,11.39
2018-04-28T05:16:05.684Z,11.43
2018-04-28T05:16:44.671Z,11.37
2018-04-28T05:17:44.661Z,11.44
2018-04-28T05:18:44.640Z,11.39
2018-04-28T05:19:44.633Z,11.37
2018-04-28T05:20:44.631Z,11.36
2018-04-28T05:22:05.622Z,11.42
2018-04-28T05:22:44.597Z,11.33
2018-04-28T05:23:44.585Z,11.40
2018-04-28T05:24:44.594Z,11.36
2018-04-28T05:25:44.569Z,11.39
2018-04-28T05:26:44.554Z,11.55
2018-04-28T05:28:05.556Z,11.52
2018-04-28T05:28:44.532Z,11.43
2018-04-28T05:29:44.538Z,11.47
2018-04-28T05:30:44.514Z,11.51
2018-04-28T05:31:44.502Z,11.57
2018-04-28T05:32:44.486Z,11.54
2018-04-28T05:34:05.484Z,11.57
2018-04-28T05:34:44.460Z,11.51
2018-04-28T05:35:44.455Z,11.46
2018-04-28T05:36:44.443Z,11.42
2018-04-28T05:37:44.437Z,11.43
2018-04-28T05:38:44.411Z,11.49
2018-04-28T05:40:05.411Z,11.44
2018-04-28T05:40:44.404Z,11.54
2018-04-28T05:41:44.386Z,11.46
2018-04-28T05:42:44.372Z,11.52
2018-04-28T05:43:44.370Z,11.46
2018-04-28T05:44:44.356Z,11.47
2018-04-28T05:46:05.346Z,11.42
2018-04-28T05:46:44.335Z,11.37
2018-04-28T05:47:44.317Z,11.43
2018-04-28T05:48:44.309Z,11.47
2018-04-28T05:49:44.289Z,11.44
2018-04-28T05:50:44.286Z,11.46
2018-04-28T05:52:05.280Z,11.47
2018-04-28T05:52:44.264Z,11.51
2018-04-28T05:53:44.250Z,11.54
2018-04-28T05:54:44.251Z,11.52
2018-04-28T05:55:44.230Z,11.55
2018-04-28T05:56:44.213Z,11.64
2018-04-28T05:58:05.218Z,11.61
2018-04-28T05:58:44.190Z,11.62
2018-04-28T05:59:44.181Z,11.62
2018-04-28T06:00:44.165Z,11.65
2018-04-28T06:01:44.165Z,11.67
2018-04-28T06:02:44.150Z,11.80
2018-04-28T06:04:05.131Z,11.78
2018-04-28T06:04:44.124Z,11.80
2018-04-28T06:05:44.117Z,11.82
2018-04-28T06:06:44.119Z,11.86
2018-04-28T06:07:44.105Z,11.82
2018-04-28T06:08:44.089Z,11.82
2018-04-28T06:10:05.074Z,11.79
2018-04-28T06:10:44.059Z,11.78
2018-04-28T06:11:44.049Z,11.90
2018-04-28T06:12:44.032Z,11.90
2018-04-28T06:13:44.031Z,11.94
2018-04-28T06:14:44.008Z,11.88
2018-04-28T06:16:05.002Z,11.90
2018-04-28T06:16:43.990Z,12.07
2018-04-28T06:17:43.976Z,12.04
2018-04-28T06:18:43.968Z,12.14
2018-04-28T06:19:43.958Z,12.31
2018-04-28T06:20:43.947Z,12.38
2018-04-28T06:22:04.945Z,12.53
2018-04-28T06:22:43.923Z,12.67
2018-04-28T06:23:43.910Z,12.82
2018-04-28T06:24:43.897Z,12.86
2018-04-28T06:25:43.897Z,12.95
2018-04-28T06:26:43.878Z,13.08
2018-04-28T06:28:04.873Z,13.29
2018-04-28T06:28:43.855Z,13.45
2018-04-28T06:29:43.847Z,13.49
2018-04-28T06:30:43.839Z,13.66
2018-04-28T06:31:43.827Z,13.75
2018-04-28T06:32:43.814Z,13.88
2018-04-28T06:34:04.820Z,13.96
2018-04-28T06:34:43.803Z,14.07
2018-04-28T06:35:43.857Z,14.22
2018-04-28T06:36:43.793Z,14.28
2018-04-28T06:37:43.771Z,14.28
2018-04-28T06:38:43.749Z,14.40
2018-04-28T06:40:04.743Z,14.50
2018-04-28T06:40:43.727Z,14.60
2018-04-28T06:41:43.723Z,14.62
2018-04-28T06:42:43.707Z,14.75
2018-04-28T06:43:43.703Z,14.83
2018-04-28T06:44:43.712Z,14.83
2018-04-28T06:46:04.681Z,14.98
2018-04-28T06:46:43.666Z,14.96
2018-04-28T06:47:43.658Z,15.03
2018-04-28T06:48:43.647Z,15.11
2018-04-28T06:49:43.642Z,15.16
2018-04-28T06:50:43.634Z,15.21
2018-04-28T06:52:04.617Z,15.35
2018-04-28T06:52:43.608Z,15.39
2018-04-28T06:53:43.595Z,15.46
2018-04-28T06:54:43.600Z,15.56
2018-04-28T06:55:43.584Z,15.62
2018-04-28T06:56:43.572Z,15.74
2018-04-28T06:58:04.574Z,15.71
2018-04-28T06:58:43.564Z,15.78
2018-04-28T06:59:43.542Z,15.87
2018-04-28T07:00:43.538Z,15.93
2018-04-28T07:01:43.528Z,15.96
2018-04-28T07:02:43.516Z,16.05
2018-04-28T07:04:04.505Z,16.08
2018-04-28T07:04:43.486Z,16.08
2018-04-28T07:05:43.482Z,16.12
2018-04-28T07:06:43.471Z,16.30
2018-04-28T07:07:43.464Z,16.21
2018-04-28T07:08:43.452Z,16.34
2018-04-28T07:10:04.450Z,16.38
2018-04-28T07:10:43.452Z,16.42
2018-04-28T07:11:43.430Z,16.48
2018-04-28T07:12:43.418Z,16.49
2018-04-28T07:13:43.414Z,16.50
2018-04-28T07:14:43.411Z,16.57
2018-04-28T07:16:04.413Z,16.68
2018-04-28T07:16:43.392Z,16.71
2018-04-28T07:17:43.380Z,16.88
2018-04-28T07:18:43.368Z,16.98
2018-04-28T07:19:43.353Z,16.98
2018-04-28T07:20:43.356Z,17.00
2018-04-28T07:22:04.342Z,16.89
2018-04-28T07:22:43.329Z,16.93
2018-04-28T07:23:43.330Z,16.86
2018-04-28T07:24:43.318Z,16.94
2018-04-28T07:25:43.305Z,16.83
2018-04-28T07:26:43.298Z,16.88
2018-04-28T07:28:04.288Z,16.88
2018-04-28T07:28:43.286Z,16.91
2018-04-28T07:29:43.268Z,16.85
2018-04-28T07:30:43.263Z,16.93
2018-04-28T07:31:43.256Z,17.00
2018-04-28T07:32:43.242Z,17.18
2018-04-28T07:34:04.258Z,17.19
2018-04-28T07:34:43.223Z,17.16
2018-04-28T07:35:43.214Z,17.15
2018-04-28T07:36:43.213Z,17.00
2018-04-28T07:37:43.197Z,16.85
2018-04-28T07:38:43.190Z,16.70
2018-04-28T07:40:04.190Z,16.70
2018-04-28T07:40:43.176Z,16.78
2018-04-28T07:41:43.168Z,16.79
2018-04-28T07:42:43.159Z,16.73
2018-04-28T07:43:43.149Z,16.42
2018-04-28T07:44:43.148Z,16.39
2018-04-28T07:46:04.141Z,16.30
2018-04-28T07:46:43.137Z,16.43
2018-04-28T07:47:43.201Z,16.52
2018-04-28T07:48:43.111Z,16.73
2018-04-28T07:49:43.105Z,16.85
2018-04-28T07:50:43.083Z,16.91
2018-04-28T07:52:04.085Z,16.88
2018-04-28T07:52:43.075Z,16.94
2018-04-28T07:53:43.062Z,16.98
2018-04-28T07:54:43.057Z,17.00
2018-04-28T07:55:43.056Z,17.15
2018-04-28T07:56:43.037Z,17.23
2018-04-28T07:58:04.035Z,17.22
2018-04-28T07:58:43.020Z,17.21
2018-04-28T07:59:43.014Z,17.21
2018-04-28T08:00:43.006Z,17.14
2018-04-28T08:01:42.992Z,17.15
2018-04-28T08:02:42.985Z,17.15
2018-04-28T08:04:03.987Z,17.08
2018-04-28T08:04:42.968Z,17.18
2018-04-28T08:05:42.962Z,17.19
2018-04-28T08:06:42.963Z,17.22
2018-04-28T08:07:42.949Z,17.23
2018-04-28T08:08:42.939Z,17.37
2018-04-28T08:10:03.931Z,17.36
2018-04-28T08:10:42.923Z,17.51
2018-04-28T08:11:42.914Z,17.68
2018-04-28T08:12:42.907Z,17.78
2018-04-28T08:13:42.916Z,17.77
2018-04-28T08:14:42.884Z,17.75
2018-04-28T08:16:03.878Z,17.77
2018-04-28T08:16:42.868Z,17.81
2018-04-28T08:17:42.875Z,17.87
2018-04-28T08:18:42.853Z,17.79
2018-04-28T08:19:42.846Z,17.75
2018-04-28T08:20:42.890Z,17.70
2018-04-28T08:22:03.841Z,17.71
2018-04-28T08:22:42.829Z,17.77
2018-04-28T08:23:42.815Z,17.72
2018-04-28T08:24:42.809Z,17.89
2018-04-28T08:25:42.800Z,18.10
2018-04-28T08:26:42.790Z,18.11
2018-04-28T08:28:03.778Z,18.27
2018-04-28T08:28:42.768Z,18.27
2018-04-28T08:29:42.766Z,18.33
2018-04-28T08:30:42.758Z,18.23
2018-04-28T08:31:42.749Z,18.21
2018-04-28T08:32:42.752Z,18.17
2018-04-28T08:34:03.743Z,18.26
2018-04-28T08:34:42.737Z,18.26
2018-04-28T08:35:42.719Z,18.35
2018-04-28T08:36:42.706Z,18.39
2018-04-28T08:37:42.704Z,18.39
2018-04-28T08:38:42.687Z,18.52
2018-04-28T08:40:03.693Z,18.55
2018-04-28T08:40:42.672Z,18.58
2018-04-28T08:41:42.670Z,18.70
2018-04-28T08:42:42.660Z,18.73
2018-04-28T08:43:42.653Z,18.80
2018-04-28T08:44:42.650Z,18.91
2018-04-28T08:46:03.654Z,18.98
2018-04-28T08:46:42.639Z,18.95
2018-04-28T08:47:42.633Z,18.99
2018-04-28T08:48:42.619Z,18.91
2018-04-28T08:49:42.613Z,18.88
2018-04-28T08:50:42.605Z,18.88
2018-04-28T08:52:03.597Z,18.88
2018-04-28T08:52:42.587Z,18.80
2018-04-28T08:53:42.586Z,18.90
2018-04-28T08:54:42.567Z,18.88
2018-04-28T08:55:42.570Z,18.90
2018-04-28T08:56:42.578Z,18.80
2018-04-28T08:58:03.608Z,18.91
2018-04-28T08:58:42.543Z,18.73
2018-04-28T08:59:42.533Z,18.82
2018-04-28T09:00:42.527Z,18.88
2018-04-28T09:01:42.519Z,18.87
2018-04-28T09:02:42.512Z,18.82
2018-04-28T09:04:03.502Z,18.80
2018-04-28T09:04:42.500Z,18.82
2018-04-28T09:05:42.478Z,18.99
2018-04-28T09:06:42.480Z,19.04
2018-04-28T09:07:42.463Z,19.14
2018-04-28T09:08:42.466Z,19.07
2018-04-28T09:10:03.457Z,19.19
2018-04-28T09:10:42.455Z,19.19
2018-04-28T09:11:42.440Z,19.14
2018-04-28T09:12:42.439Z,19.16
2018-04-28T09:13:42.435Z,19.14
2018-04-28T09:14:42.423Z,19.18
2018-04-28T09:16:03.419Z,19.13
2018-04-28T09:16:42.409Z,19.28
2018-04-28T09:17:42.406Z,19.36
2018-04-28T09:18:42.388Z,19.39
2018-04-28T09:19:42.386Z,19.32
2018-04-28T09:20:42.385Z,19.36
2018-04-28T09:22:03.374Z,19.43
2018-04-28T09:22:42.368Z,19.50
2018-04-28T09:23:42.350Z,19.46
2018-04-28T09:24:42.346Z,19.39
2018-04-28T09:25:42.352Z,19.44
2018-04-28T09:26:42.363Z,19.41
2018-04-28T09:28:03.340Z,19.41
2018-04-28T09:28:42.321Z,19.50
2018-04-28T09:29:42.319Z,19.56
2018-04-28T09:30:42.310Z,19.44
2018-04-28T09:31:42.292Z,19.46
2018-04-28T09:32:42.296Z,19.48
2018-04-28T09:34:03.294Z,19.63
2018-04-28T09:34:42.281Z,19.80
2018-04-28T09:35:42.274Z,19.91
2018-04-28T09:36:42.282Z,20.03
2018-04-28T09:37:42.260Z,20.21
2018-04-28T09:38:42.245Z,20.24
2018-04-28T09:40:03.335Z,20.17
2018-04-28T09:40:42.240Z,20.03
2018-04-28T09:41:42.227Z,19.80
2018-04-28T09:42:42.217Z,19.91
2018-04-28T09:43:42.212Z,20.02
2018-04-28T09:44:42.205Z,20.14
2018-04-28T09:46:03.210Z,20.24
2018-04-28T09:46:42.194Z,20.28
2018-04-28T09:47:42.180Z,20.32
2018-04-28T09:48:42.186Z,20.39
2018-04-28T09:49:42.180Z,20.42
2018-04-28T09:50:42.164Z,20.54
2018-04-28T09:52:03.166Z,20.74
2018-04-28T09:52:42.154Z,20.85
2018-04-28T09:53:42.147Z,20.64
2018-04-28T09:54:42.144Z,20.69
2018-04-28T09:55:42.136Z,20.76
2018-04-28T09:56:42.130Z,20.70
2018-04-28T09:58:03.128Z,20.70
2018-04-28T09:58:42.117Z,20.70
2018-04-28T09:59:42.104Z,20.54
2018-04-28T10:00:42.105Z,20.14
2018-04-28T10:01:42.093Z,20.13
2018-04-28T10:02:42.089Z,20.05
2018-04-28T10:04:03.080Z,19.86
2018-04-28T10:04:42.072Z,19.65
2018-04-28T10:05:42.073Z,19.66
2018-04-28T10:06:42.072Z,19.69
2018-04-28T10:07:42.057Z,19.69
2018-04-28T10:08:42.053Z,19.73
2018-04-28T10:10:03.052Z,19.76
2018-04-28T10:10:42.032Z,19.63
2018-04-28T10:11:42.036Z,19.78
2018-04-28T10:12:42.094Z,19.76
2018-04-28T10:13:42.028Z,19.91
2018-04-28T10:14:42.008Z,19.87
2018-04-28T10:16:03.007Z,20.02
2018-04-28T10:16:42.000Z,20.20
2018-04-28T10:17:41.992Z,20.21
2018-04-28T10:18:41.991Z,20.31
2018-04-28T10:19:41.976Z,20.39
2018-04-28T10:20:41.972Z,20.35
2018-04-28T10:22:02.965Z,20.39
2018-04-28T10:22:41.961Z,20.31
2018-04-28T10:23:41.950Z,20.28
2018-04-28T10:24:41.946Z,20.32
2018-04-28T10:25:41.945Z,20.28
2018-04-28T10:26:41.929Z,20.24
2018-04-28T10:28:02.933Z,20.41
2018-04-28T10:28:41.917Z,20.43
2018-04-28T10:29:41.912Z,20.59
2018-04-28T10:30:41.904Z,20.70
2018-04-28T10:31:41.892Z,20.74
2018-04-28T10:32:41.898Z,20.88
2018-04-28T10:34:02.890Z,20.84
2018-04-28T10:34:41.883Z,20.91
2018-04-28T10:35:41.866Z,20.87
2018-04-28T10:36:41.862Z,20.80
2018-04-28T10:37:41.859Z,20.69
2018-04-28T10:38:41.861Z,20.76
2018-04-28T10:40:02.859Z,20.72
2018-04-28T10:40:41.837Z,20.70
2018-04-28T10:41:41.833Z,20.70
2018-04-28T10:42:41.825Z,20.51
2018-04-28T10:43:41.821Z,20.57
2018-04-28T10:44:41.819Z,20.51
2018-04-28T10:46:02.817Z,20.47
2018-04-28T10:46:41.809Z,20.42
2018-04-28T10:47:41.804Z,20.39
2018-04-28T10:48:41.782Z,20.47
2018-04-28T10:49:41.778Z,20.47
2018-04-28T10:50:41.773Z,20.38
2018-04-28T10:52:02.773Z,20.47
2018-04-28T10:52:41.767Z,20.47
2018-04-28T10:53:41.845Z,20.48
2018-04-28T10:54:41.751Z,20.52
2018-04-28T10:55:41.741Z,20.58
2018-04-28T10:56:41.741Z,20.52
2018-04-28T10:58:02.753Z,20.61
2018-04-28T10:58:41.729Z,20.67
2018-04-28T10:59:41.725Z,20.70
2018-04-28T11:00:41.720Z,20.69
2018-04-28T11:01:41.704Z,20.73
2018-04-28T11:02:41.699Z,20.95
2018-04-28T11:04:02.700Z,21.03
2018-04-28T11:04:41.685Z,21.13
2018-04-28T11:05:41.685Z,21.10
2018-04-28T11:06:41.690Z,21.17
2018-04-28T11:07:41.715Z,21.29
2018-04-28T11:08:41.666Z,21.34
2018-04-28T11:10:02.663Z,21.27
2018-04-28T11:10:41.643Z,21.47
2018-04-28T11:11:41.632Z,21.46
2018-04-28T11:12:41.641Z,21.47
2018-04-28T11:13:41.629Z,21.56
2018-04-28T11:14:41.630Z,21.75
2018-04-28T11:16:02.624Z,21.86
2018-04-28T11:16:41.616Z,21.82
2018-04-28T11:17:41.610Z,22.03
2018-04-28T11:18:41.602Z,22.14
2018-04-28T11:19:41.660Z,22.03
2018-04-28T11:20:41.592Z,22.20
2018-04-28T11:22:02.620Z,22.30
2018-04-28T11:22:41.601Z,22.42
2018-04-28T11:23:41.567Z,22.45
2018-04-28T11:24:41.577Z,22.55
2018-04-28T11:25:41.607Z,22.60
2018-04-28T11:26:41.564Z,22.54
2018-04-28T11:28:02.554Z,22.43
2018-04-28T11:28:41.540Z,22.51
2018-04-28T11:29:41.541Z,22.52
2018-04-28T11:30:41.536Z,22.61
2018-04-28T11:31:41.528Z,22.68
2018-04-28T11:32:41.517Z,22.77
2018-04-28T11:34:02.545Z,22.80
2018-04-28T11:34:41.507Z,22.86
2018-04-28T11:35:41.499Z,22.86
2018-04-28T11:36:41.495Z,22.80
2018-04-28T11:37:41.494Z,22.76
2018-04-28T11:38:41.496Z,22.62
2018-04-28T11:40:02.492Z,22.61
2018-04-28T11:40:41.485Z,22.58
2018-04-28T11:41:41.476Z,22.58
2018-04-28T11:42:41.474Z,22.37
2018-04-28T11:43:41.548Z,22.17
2018-04-28T11:44:41.456Z,22.15
2018-04-28T11:46:02.458Z,22.25
2018-04-28T11:46:41.460Z,22.37
2018-04-28T11:47:41.435Z,22.60
2018-04-28T11:48:41.457Z,22.72
2018-04-28T11:49:41.445Z,22.73
2018-04-28T11:50:41.423Z,22.83
2018-04-28T11:52:02.421Z,22.95
2018-04-28T11:52:41.409Z,23.13
2018-04-28T11:53:41.423Z,23.10
2018-04-28T11:54:41.404Z,23.02
2018-04-28T11:55:41.400Z,23.04
2018-04-28T11:56:41.394Z,23.02
2018-04-28T11:58:02.398Z,22.94
2018-04-28T11:58:41.392Z,23.02
2018-04-28T11:59:41.382Z,22.95
2018-04-28T12:00:41.380Z,23.19
2018-04-28T12:01:41.382Z,22.94
2018-04-28T12:02:41.402Z,22.98
2018-04-28T12:04:02.363Z,23.02
2018-04-28T12:04:41.360Z,23.00
2018-04-28T12:05:41.420Z,22.91
2018-04-28T12:06:41.352Z,23.01
2018-04-28T12:07:41.346Z,22.91
2018-04-28T12:08:41.336Z,22.70
2018-04-28T12:10:02.364Z,22.68
2018-04-28T12:10:41.330Z,22.60
2018-04-28T12:11:41.320Z,22.64
2018-04-28T12:12:41.402Z,22.64
2018-04-28T12:13:41.312Z,22.55
2018-04-28T12:14:41.311Z,22.70
2018-04-28T12:16:02.305Z,22.72
2018-04-28T12:16:41.298Z,22.82
2018-04-28T12:17:41.295Z,22.83
2018-04-28T12:18:41.284Z,22.73
2018-04-28T12:19:41.284Z,22.73
2018-04-28T12:20:41.275Z,22.79
2018-04-28T12:22:02.279Z,22.91
2018-04-28T12:22:41.271Z,23.13
2018-04-28T12:23:41.269Z,23.13
2018-04-28T12:24:41.255Z,22.94
2018-04-28T12:25:41.257Z,22.83
2018-04-28T12:26:41.241Z,22.73
2018-04-28T12:28:02.251Z,22.17
2018-04-28T12:28:41.233Z,21.96
2018-04-28T12:29:41.245Z,21.98
2018-04-28T12:30:41.227Z,21.91
2018-04-28T12:31:41.221Z,21.79
2018-04-28T12:32:41.214Z,21.50
2018-04-28T12:34:02.222Z,21.42
2018-04-28T12:34:41.213Z,21.31
2018-04-28T12:35:41.206Z,21.37
2018-04-28T12:36:41.206Z,21.31
2018-04-28T12:37:41.195Z,21.38
2018-04-28T12:38:41.193Z,21.34
2018-04-28T12:40:02.188Z,21.43
2018-04-28T12:40:41.188Z,21.67
2018-04-28T12:41:41.175Z,21.88
2018-04-28T12:42:41.165Z,22.33
2018-04-28T12:43:41.170Z,22.31
2018-04-28T12:44:41.149Z,22.37
2018-04-28T12:46:02.160Z,22.36
2018-04-28T12:46:41.140Z,22.46
2018-04-28T12:47:41.132Z,22.43
2018-04-28T12:48:41.132Z,22.57
2018-04-28T12:49:41.133Z,22.51
2018-04-28T12:50:41.155Z,22.61
2018-04-28T12:52:02.131Z,22.92
2018-04-28T12:52:41.119Z,23.07